Time;durP1;ratioP1;P1;durP2;ratioP2;P2;SDS_P1;SDS_P2;PMS_P1;PMS_P2;Temp;Humidity;BMP_temperature;BMP_pressure;BME280_temperature;BME280_humidity;BME280_pressure;Samples;Min_cycle;Max_cycle;Signal;HPM_P1;HPM_P2
2021/05/01 00:02:02;;;;;;;16.23;14.93;;;;;;;;;;4956214;28;20484;-64
2021/05/01 00:04:28;;;;;;;15.97;14.77;;;;;;;;;;4956325;28;20429;-64
2021/05/01 00:06:55;;;;;;;18.07;16.57;;;;;;;;;;4955612;28;20453;-64
2021/05/01 00:09:21;;;;;;;15.50;14.27;;;;;;;;;;4955900;28;20456;-65
2021/05/01 00:11:49;;;;;;;15.50;14.30;;;;;;;;;;4955571;28;20452;-63
2021/05/01 00:14:15;;;;;;;15.50;14.20;;;;;;;;;;4955505;28;20463;-64
2021/05/01 00:16:42;;;;;;;14.80;13.60;;;;;;;;;;4954985;28;20452;-64
2021/05/01 00:19:09;;;;;;;15.30;14.10;;;;;;;;;;4955608;28;20456;-64
2021/05/01 00:21:35;;;;;;;15.23;13.83;;;;;;;;;;4955335;28;20455;-64
2021/05/01 00:24:02;;;;;;;14.90;13.80;;;;;;;;;;4955442;28;20456;-64
2021/05/01 00:26:29;;;;;;;14.50;13.40;;;;;;;;;;4954537;28;21030;-64
2021/05/01 00:28:56;;;;;;;16.03;14.53;;;;;;;;;;4954776;28;20452;-64
2021/05/01 00:31:24;;;;;;;16.30;14.90;;;;;;;;;;4955108;28;20456;-64
2021/05/01 00:33:50;;;;;;;14.87;13.67;;;;;;;;;;4954805;28;20854;-64
2021/05/01 00:36:17;;;;;;;15.17;13.97;;;;;;;;;;4954697;28;20460;-64
2021/05/01 00:38:44;;;;;;;13.70;12.43;;;;;;;;;;4954984;28;20838;-64
2021/05/01 00:41:11;;;;;;;14.00;13.00;;;;;;;;;;4954768;28;20547;-63
2021/05/01 00:43:39;;;;;;;14.10;13.00;;;;;;;;;;4954644;28;21006;-64
2021/05/01 00:46:06;;;;;;;14.30;13.10;;;;;;;;;;4954728;28;20554;-64
2021/05/01 00:48:33;;;;;;;14.87;13.67;;;;;;;;;;4954556;28;20456;-63
2021/05/01 00:51:00;;;;;;;13.87;12.77;;;;;;;;;;4954734;28;20944;-64
2021/05/01 00:53:27;;;;;;;14.57;13.47;;;;;;;;;;4954589;28;20473;-64
2021/05/01 00:55:53;;;;;;;13.30;12.30;;;;;;;;;;4954219;28;20452;-66
2021/05/01 00:58:20;;;;;;;13.67;12.67;;;;;;;;;;4954954;28;20452;-64
2021/05/01 01:03:33;;;;;;;13.93;12.90;;;;;;;;;;4947627;28;20833;-64
2021/05/01 01:06:00;;;;;;;14.47;13.30;;;;;;;;;;4955759;28;20496;-64
2021/05/01 01:08:26;;;;;;;13.10;12.10;;;;;;;;;;4955072;28;20944;-63
2021/05/01 01:10:54;;;;;;;14.13;12.93;;;;;;;;;;4954353;28;20464;-63
2021/05/01 01:13:20;;;;;;;14.53;13.33;;;;;;;;;;4954392;28;20547;-64
2021/05/01 01:15:47;;;;;;;14.53;13.33;;;;;;;;;;4954120;28;20455;-63
2021/05/01 01:18:14;;;;;;;14.23;13.17;;;;;;;;;;4954089;28;20519;-64
2021/05/01 01:20:41;;;;;;;14.27;13.17;;;;;;;;;;4954306;28;20448;-63
2021/05/01 01:23:09;;;;;;;14.00;12.80;;;;;;;;;;4953883;28;20468;-63
2021/05/01 01:25:36;;;;;;;15.20;13.87;;;;;;;;;;4953767;28;20488;-64
2021/05/01 01:28:03;;;;;;;13.70;12.60;;;;;;;;;;4953898;28;20952;-64
2021/05/01 01:30:30;;;;;;;14.80;13.50;;;;;;;;;;4953923;28;20452;-63
2021/05/01 01:32:57;;;;;;;13.30;12.30;;;;;;;;;;4953869;28;20471;-63
2021/05/01 01:35:24;;;;;;;14.87;13.60;;;;;;;;;;4953469;28;20456;-63
2021/05/01 01:37:51;;;;;;;14.40;13.00;;;;;;;;;;4954390;28;20479;-63
2021/05/01 01:40:19;;;;;;;14.07;12.97;;;;;;;;;;4954061;28;20824;-63
2021/05/01 01:42:46;;;;;;;14.27;13.13;;;;;;;;;;4954113;28;20476;-63
2021/05/01 01:45:13;;;;;;;14.33;13.23;;;;;;;;;;4954019;28;20488;-63
2021/05/01 01:47:40;;;;;;;13.70;12.60;;;;;;;;;;4953665;28;20452;-64
2021/05/01 01:50:07;;;;;;;13.90;12.80;;;;;;;;;;4953615;28;20961;-63
2021/05/01 01:52:36;;;;;;;14.93;13.43;;;;;;;;;;4953803;28;20868;-63
2021/05/01 01:55:03;;;;;;;13.83;12.70;;;;;;;;;;4953838;28;20488;-63
2021/05/01 01:57:30;;;;;;;13.53;12.43;;;;;;;;;;4953706;28;20459;-64
2021/05/01 01:59:57;;;;;;;14.10;12.80;;;;;;;;;;4953797;28;20463;-64
2021/05/01 02:02:24;;;;;;;14.20;12.90;;;;;;;;;;4953594;28;20487;-63
2021/05/01 02:04:50;;;;;;;15.13;13.80;;;;;;;;;;4953574;28;20836;-63
2021/05/01 02:07:17;;;;;;;14.00;12.90;;;;;;;;;;4958092;28;20444;-64
2021/05/01 02:09:43;;;;;;;13.40;12.17;;;;;;;;;;4957567;28;20959;-63
2021/05/01 02:12:10;;;;;;;14.03;12.87;;;;;;;;;;4957691;28;20472;-63
2021/05/01 02:14:37;;;;;;;13.57;12.37;;;;;;;;;;4962800;28;20841;-64
2021/05/01 02:17:04;;;;;;;14.87;13.63;;;;;;;;;;4964588;28;20452;-64
2021/05/01 02:19:31;;;;;;;13.97;12.87;;;;;;;;;;4965231;28;20452;-64
2021/05/01 02:21:57;;;;;;;15.47;14.17;;;;;;;;;;4958611;28;20466;-64
2021/05/01 02:24:24;;;;;;;14.93;13.83;;;;;;;;;;4959853;28;20958;-63
2021/05/01 02:26:50;;;;;;;13.90;12.80;;;;;;;;;;4957171;28;20488;-63
2021/05/01 02:29:17;;;;;;;16.00;14.73;;;;;;;;;;4957522;28;20459;-63
2021/05/01 02:31:45;;;;;;;14.53;13.33;;;;;;;;;;4957086;28;20513;-63
2021/05/01 02:34:11;;;;;;;15.37;14.00;;;;;;;;;;4957795;28;20456;-63
2021/05/01 02:36:38;;;;;;;15.57;14.07;;;;;;;;;;4956813;28;20966;-63
2021/05/01 02:39:05;;;;;;;14.40;13.20;;;;;;;;;;4957363;28;20450;-65
2021/05/01 02:41:31;;;;;;;15.63;14.33;;;;;;;;;;4957094;28;20877;-64
2021/05/01 02:43:58;;;;;;;14.73;13.53;;;;;;;;;;4957884;28;20458;-63
2021/05/01 02:46:25;;;;;;;15.57;14.27;;;;;;;;;;4956895;28;20491;-63
2021/05/01 02:48:52;;;;;;;15.67;14.37;;;;;;;;;;4957382;28;20460;-63
2021/05/01 02:51:19;;;;;;;14.83;13.53;;;;;;;;;;4956635;28;20824;-64
2021/05/01 02:53:45;;;;;;;15.17;13.80;;;;;;;;;;4957003;28;21018;-63
2021/05/01 02:56:12;;;;;;;14.50;13.10;;;;;;;;;;4956796;28;20447;-63
2021/05/01 02:58:38;;;;;;;15.70;14.40;;;;;;;;;;4956978;28;20452;-63
2021/05/01 03:01:05;;;;;;;16.23;14.73;;;;;;;;;;4956920;28;20454;-63
2021/05/01 03:03:32;;;;;;;14.70;13.30;;;;;;;;;;4956451;28;20868;-63
2021/05/01 03:05:59;;;;;;;15.20;13.90;;;;;;;;;;4956682;28;20937;-63
2021/05/01 03:08:26;;;;;;;15.60;14.30;;;;;;;;;;4956714;28;20952;-64
2021/05/01 03:10:52;;;;;;;16.23;14.73;;;;;;;;;;4956598;28;20498;-63
2021/05/01 03:13:19;;;;;;;16.13;14.77;;;;;;;;;;4957011;28;20472;-63
2021/05/01 03:15:45;;;;;;;15.87;14.50;;;;;;;;;;4956192;28;20514;-64
2021/05/01 03:18:12;;;;;;;16.13;14.73;;;;;;;;;;4956516;28;20759;-63
2021/05/01 03:20:39;;;;;;;15.60;14.40;;;;;;;;;;4956502;28;20471;-63
2021/05/01 03:23:08;;;;;;;15.83;14.50;;;;;;;;;;4956529;28;20851;-63
2021/05/01 03:25:34;;;;;;;16.23;14.80;;;;;;;;;;4956747;28;20871;-63
2021/05/01 03:28:01;;;;;;;15.80;14.43;;;;;;;;;;4957498;28;20453;-63
2021/05/01 03:30:27;;;;;;;15.87;14.47;;;;;;;;;;4958021;28;20456;-63
2021/05/01 03:32:54;;;;;;;18.10;16.40;;;;;;;;;;4958854;28;20468;-65
2021/05/01 03:35:21;;;;;;;16.53;15.17;;;;;;;;;;4956346;28;20452;-63
2021/05/01 03:37:48;;;;;;;16.30;15.00;;;;;;;;;;4956071;28;20536;-64
2021/05/01 03:40:16;;;;;;;16.83;15.53;;;;;;;;;;4956322;28;20948;-64
2021/05/01 03:42:43;;;;;;;16.63;15.20;;;;;;;;;;4955959;28;20472;-64
2021/05/01 03:45:10;;;;;;;16.90;15.50;;;;;;;;;;4956006;28;20491;-63
2021/05/01 03:47:37;;;;;;;16.43;14.80;;;;;;;;;;4956051;28;20455;-63
2021/05/01 03:50:03;;;;;;;16.70;15.37;;;;;;;;;;4956203;28;20459;-63
2021/05/01 03:52:30;;;;;;;15.33;14.03;;;;;;;;;;4955692;28;21051;-63
2021/05/01 03:54:57;;;;;;;16.40;15.10;;;;;;;;;;4955735;28;20452;-64
2021/05/01 03:57:24;;;;;;;16.27;14.87;;;;;;;;;;4955353;28;20456;-63
2021/05/01 03:59:51;;;;;;;16.80;15.27;;;;;;;;;;4955718;28;20456;-63
2021/05/01 04:02:17;;;;;;;16.83;15.43;;;;;;;;;;4955389;28;21124;-63
2021/05/01 04:04:44;;;;;;;15.90;14.50;;;;;;;;;;4955962;28;20448;-64
2021/05/01 04:07:11;;;;;;;17.27;15.87;;;;;;;;;;4955673;28;20519;-63
2021/05/01 04:09:37;;;;;;;17.83;16.43;;;;;;;;;;4955204;28;20463;-63
2021/05/01 04:12:04;;;;;;;18.13;16.63;;;;;;;;;;4955789;28;20483;-64
2021/05/01 04:14:31;;;;;;;17.60;16.07;;;;;;;;;;4955376;28;20452;-64
2021/05/01 04:16:58;;;;;;;18.50;16.90;;;;;;;;;;4955152;28;20940;-64
2021/05/01 04:19:24;;;;;;;17.20;15.97;;;;;;;;;;4955376;28;20449;-64
2021/05/01 04:21:51;;;;;;;19.17;17.57;;;;;;;;;;4955524;28;20803;-64
2021/05/01 04:24:18;;;;;;;18.43;17.00;;;;;;;;;;4955125;28;20456;-63
2021/05/01 04:26:44;;;;;;;19.20;17.40;;;;;;;;;;4955425;28;20484;-64
2021/05/01 04:29:11;;;;;;;19.07;17.43;;;;;;;;;;4954686;28;20456;-64
2021/05/01 04:31:38;;;;;;;17.93;16.57;;;;;;;;;;4955255;28;20456;-64
2021/05/01 04:34:05;;;;;;;19.63;18.00;;;;;;;;;;4955555;28;20464;-64
2021/05/01 04:36:32;;;;;;;18.63;17.03;;;;;;;;;;4954923;28;20591;-64
2021/05/01 04:38:58;;;;;;;17.50;16.10;;;;;;;;;;4955484;28;20459;-64
2021/05/01 04:41:25;;;;;;;18.77;17.20;;;;;;;;;;4955346;28;20460;-63
2021/05/01 04:43:52;;;;;;;17.77;16.37;;;;;;;;;;4955175;28;20479;-64
2021/05/01 04:46:19;;;;;;;17.50;16.20;;;;;;;;;;4954721;28;20487;-63
2021/05/01 04:48:46;;;;;;;17.00;15.50;;;;;;;;;;4957052;28;20551;-63
2021/05/01 04:51:13;;;;;;;17.70;16.20;;;;;;;;;;4957122;28;20452;-64
2021/05/01 04:53:40;;;;;;;16.43;15.03;;;;;;;;;;4956136;28;20494;-64
2021/05/01 04:56:06;;;;;;;17.23;15.73;;;;;;;;;;4957600;28;20451;-64
2021/05/01 04:58:33;;;;;;;17.43;16.00;;;;;;;;;;4966620;28;20456;-64
2021/05/01 05:01:00;;;;;;;16.30;15.00;;;;;;;;;;4958855;28;20990;-64
2021/05/01 05:03:27;;;;;;;16.60;15.30;;;;;;;;;;4969886;28;20511;-64
2021/05/01 05:05:54;;;;;;;17.83;16.40;;;;;;;;;;4956975;28;20496;-64
2021/05/01 05:08:21;;;;;;;15.83;14.60;;;;;;;;;;4954879;28;20452;-64
2021/05/01 05:10:47;;;;;;;16.00;14.43;;;;;;;;;;4954147;28;20460;-63
2021/05/01 05:13:14;;;;;;;16.10;14.60;;;;;;;;;;4954753;28;20486;-63
2021/05/01 05:15:40;;;;;;;14.63;13.53;;;;;;;;;;4954341;28;20794;-63
2021/05/01 05:18:07;;;;;;;16.70;15.17;;;;;;;;;;4954301;28;20515;-63
2021/05/01 05:20:34;;;;;;;14.63;13.47;;;;;;;;;;4953871;28;20940;-64
2021/05/01 05:23:01;;;;;;;14.07;12.87;;;;;;;;;;4954302;28;20471;-64
2021/05/01 05:25:28;;;;;;;15.30;14.20;;;;;;;;;;4954130;28;20484;-63
2021/05/01 05:27:54;;;;;;;14.23;13.13;;;;;;;;;;4954003;28;20503;-63
2021/05/01 05:30:21;;;;;;;15.40;13.80;;;;;;;;;;4954358;28;20861;-62
2021/05/01 05:32:48;;;;;;;13.90;12.70;;;;;;;;;;4953993;28;20469;-63
2021/05/01 05:35:14;;;;;;;13.63;12.67;;;;;;;;;;4954424;28;20456;-63
2021/05/01 05:37:41;;;;;;;14.30;13.10;;;;;;;;;;4954419;28;20452;-62
2021/05/01 05:40:09;;;;;;;13.33;12.33;;;;;;;;;;4953060;28;20464;-63
2021/05/01 05:42:35;;;;;;;13.07;12.07;;;;;;;;;;4953827;28;20534;-63
2021/05/01 05:45:02;;;;;;;13.40;11.97;;;;;;;;;;4953897;28;20970;-62
2021/05/01 05:47:29;;;;;;;12.30;11.40;;;;;;;;;;4953637;28;20452;-62
2021/05/01 05:49:55;;;;;;;14.10;12.90;;;;;;;;;;4953790;28;20494;-62
2021/05/01 05:52:22;;;;;;;13.17;11.97;;;;;;;;;;4953873;28;20468;-62
2021/05/01 05:54:48;;;;;;;13.57;12.27;;;;;;;;;;4953788;28;20507;-62
2021/05/01 05:57:16;;;;;;;13.53;12.60;;;;;;;;;;4953796;28;20499;-62
2021/05/01 05:59:43;;;;;;;12.20;11.30;;;;;;;;;;4953780;28;20489;-62
2021/05/01 06:02:12;;;;;;;12.87;11.80;;;;;;;;;;4953295;28;20996;-62
2021/05/01 06:04:41;;;;;;;13.50;12.40;;;;;;;;;;4954033;28;20479;-62
2021/05/01 06:07:11;;;;;;;13.30;12.20;;;;;;;;;;4953532;28;20999;-62
2021/05/01 06:09:38;;;;;;;12.57;11.67;;;;;;;;;;4953728;28;20511;-62
2021/05/01 06:12:06;;;;;;;12.73;11.63;;;;;;;;;;4953669;28;20475;-62
2021/05/01 06:14:33;;;;;;;14.70;12.40;;;;;;;;;;4953356;28;20948;-62
2021/05/01 06:17:00;;;;;;;12.83;11.83;;;;;;;;;;4953467;28;20821;-63
2021/05/01 06:19:27;;;;;;;12.40;11.30;;;;;;;;;;4953875;28;20452;-62
2021/05/01 06:21:53;;;;;;;12.80;11.60;;;;;;;;;;4953681;28;20476;-62
2021/05/01 06:24:20;;;;;;;13.37;12.30;;;;;;;;;;4953692;28;20452;-62
2021/05/01 06:26:46;;;;;;;12.73;11.73;;;;;;;;;;4953329;28;20667;-62
2021/05/01 06:29:13;;;;;;;12.40;11.40;;;;;;;;;;4953535;28;20448;-62
2021/05/01 06:31:41;;;;;;;11.37;10.47;;;;;;;;;;4953504;28;20455;-62
2021/05/01 06:34:08;;;;;;;11.87;10.97;;;;;;;;;;4954027;28;20455;-62
2021/05/01 06:36:36;;;;;;;13.10;12.10;;;;;;;;;;4953249;28;20453;-62
2021/05/01 06:39:05;;;;;;;12.93;11.87;;;;;;;;;;4953408;28;20940;-63
2021/05/01 06:41:39;;;;;;;11.87;10.67;;;;;;;;;;4953735;28;20453;-62
2021/05/01 06:44:08;;;;;;;11.40;10.50;;;;;;;;;;4953939;28;20436;-62
2021/05/01 06:46:37;;;;;;;11.60;10.70;;;;;;;;;;4953511;28;20488;-62
2021/05/01 06:49:06;;;;;;;12.27;11.37;;;;;;;;;;4953285;28;20459;-62
2021/05/01 06:51:37;;;;;;;13.27;12.17;;;;;;;;;;4954672;28;20452;-63
2021/05/01 06:54:04;;;;;;;11.60;10.70;;;;;;;;;;4957604;28;20462;-62
2021/05/01 06:56:31;;;;;;;11.80;10.70;;;;;;;;;;4956428;28;20447;-63
2021/05/01 06:59:00;;;;;;;12.93;11.83;;;;;;;;;;4957181;28;20467;-62
2021/05/01 07:01:27;;;;;;;12.50;11.40;;;;;;;;;;4957146;28;20452;-62
2021/05/01 07:03:54;;;;;;;12.30;11.40;;;;;;;;;;4979706;23;20771;-62
2021/05/01 07:06:22;;;;;;;12.90;11.90;;;;;;;;;;4955808;28;20495;-63
2021/05/01 07:08:48;;;;;;;13.20;12.20;;;;;;;;;;4967979;28;20459;-63
2021/05/01 07:11:15;;;;;;;12.20;11.10;;;;;;;;;;4975695;28;20455;-62
2021/05/01 07:13:42;;;;;;;12.40;11.43;;;;;;;;;;4971891;28;20472;-64
2021/05/01 07:16:10;;;;;;;11.63;10.53;;;;;;;;;;4956649;28;20441;-62
2021/05/01 07:18:38;;;;;;;12.20;11.30;;;;;;;;;;4956657;28;20550;-63
2021/05/01 07:21:06;;;;;;;12.33;11.40;;;;;;;;;;4956419;28;20456;-62
2021/05/01 07:23:33;;;;;;;11.93;10.87;;;;;;;;;;4956040;28;20460;-63
2021/05/01 07:26:00;;;;;;;12.33;11.33;;;;;;;;;;4956101;28;20498;-63
2021/05/01 07:28:27;;;;;;;11.87;10.87;;;;;;;;;;4956400;28;20448;-63
2021/05/01 07:30:55;;;;;;;10.97;10.07;;;;;;;;;;4956070;28;20452;-63
2021/05/01 07:33:24;;;;;;;11.50;10.50;;;;;;;;;;4956090;28;20448;-63
2021/05/01 07:35:51;;;;;;;12.10;11.10;;;;;;;;;;4956047;28;20459;-63
2021/05/01 07:38:19;;;;;;;11.80;10.90;;;;;;;;;;4955699;28;20452;-62
2021/05/01 07:40:46;;;;;;;13.17;11.30;;;;;;;;;;4955984;28;20448;-63
2021/05/01 07:43:16;;;;;;;11.83;10.90;;;;;;;;;;4956149;28;20460;-63
2021/05/01 07:45:42;;;;;;;11.27;10.33;;;;;;;;;;4955783;28;20959;-62
2021/05/01 07:48:11;;;;;;;12.53;11.43;;;;;;;;;;4955696;28;20460;-63
2021/05/01 07:50:38;;;;;;;11.13;10.23;;;;;;;;;;4955683;28;20822;-62
2021/05/01 07:53:05;;;;;;;11.30;10.40;;;;;;;;;;4955755;28;20452;-63
2021/05/01 07:55:31;;;;;;;11.53;10.60;;;;;;;;;;4955149;28;20487;-63
2021/05/01 07:57:59;;;;;;;12.17;10.87;;;;;;;;;;4955866;28;20463;-62
2021/05/01 08:00:26;;;;;;;12.03;11.13;;;;;;;;;;4955658;28;20456;-63
2021/05/01 08:02:52;;;;;;;11.03;10.23;;;;;;;;;;4954888;28;20535;-63
2021/05/01 08:05:20;;;;;;;11.33;10.33;;;;;;;;;;4955097;28;20484;-63
2021/05/01 08:07:48;;;;;;;11.53;10.50;;;;;;;;;;4955558;28;20964;-63
2021/05/01 08:10:14;;;;;;;10.97;10.10;;;;;;;;;;4955368;28;20456;-63
2021/05/01 08:12:41;;;;;;;11.33;10.30;;;;;;;;;;4955662;28;20467;-63
2021/05/01 08:15:09;;;;;;;10.27;9.37;;;;;;;;;;4955495;28;20843;-63
2021/05/01 08:17:36;;;;;;;10.83;10.03;;;;;;;;;;4955574;28;20448;-62
2021/05/01 08:20:04;;;;;;;9.83;9.03;;;;;;;;;;4955868;28;20452;-62
2021/05/01 08:22:30;;;;;;;11.00;10.03;;;;;;;;;;4955419;28;20452;-63
2021/05/01 08:24:57;;;;;;;10.00;9.20;;;;;;;;;;4955609;28;20476;-62
2021/05/01 08:27:25;;;;;;;10.47;9.57;;;;;;;;;;4955109;28;20519;-63
2021/05/01 08:29:51;;;;;;;11.27;10.47;;;;;;;;;;4955326;28;20452;-62
2021/05/01 08:32:19;;;;;;;10.60;9.80;;;;;;;;;;4955145;28;20466;-63
2021/05/01 08:34:45;;;;;;;11.70;10.70;;;;;;;;;;4955288;28;21064;-62
2021/05/01 08:37:12;;;;;;;11.67;10.57;;;;;;;;;;4955291;28;20450;-63
2021/05/01 08:39:39;;;;;;;11.57;10.67;;;;;;;;;;4956141;28;20460;-64
2021/05/01 08:42:06;;;;;;;11.00;10.10;;;;;;;;;;4957377;28;20465;-63
2021/05/01 08:44:32;;;;;;;10.10;9.30;;;;;;;;;;4957166;28;20473;-63
2021/05/01 08:47:00;;;;;;;10.20;9.40;;;;;;;;;;4956022;28;20484;-63
2021/05/01 08:49:27;;;;;;;9.90;9.10;;;;;;;;;;4956730;28;20479;-63
2021/05/01 08:51:54;;;;;;;10.53;9.47;;;;;;;;;;4957065;28;20459;-63
2021/05/01 08:54:20;;;;;;;9.07;8.37;;;;;;;;;;4956567;28;20483;-63
2021/05/01 08:56:47;;;;;;;10.43;9.53;;;;;;;;;;4955752;28;20455;-63
2021/05/01 08:59:14;;;;;;;9.03;8.23;;;;;;;;;;4954500;28;20460;-62
2021/05/01 09:01:41;;;;;;;8.87;8.10;;;;;;;;;;4954761;28;20456;-63
2021/05/01 09:04:08;;;;;;;8.00;7.40;;;;;;;;;;4954293;28;20563;-63
2021/05/01 09:06:37;;;;;;;7.63;7.03;;;;;;;;;;4954329;28;20496;-63
2021/05/01 09:09:05;;;;;;;8.30;7.50;;;;;;;;;;4954280;28;20460;-63
2021/05/01 09:11:35;;;;;;;7.90;7.10;;;;;;;;;;4953988;28;20806;-63
2021/05/01 09:14:14;;;;;;;8.13;7.43;;;;;;;;;;4953791;28;20556;-63
2021/05/01 09:16:41;;;;;;;7.20;6.70;;;;;;;;;;4954114;28;20518;-64
2021/05/01 09:19:08;;;;;;;8.00;7.40;;;;;;;;;;4954574;28;20540;-63
2021/05/01 09:21:34;;;;;;;7.80;7.20;;;;;;;;;;4954248;28;20821;-63
2021/05/01 09:24:03;;;;;;;7.87;7.27;;;;;;;;;;4954063;28;20479;-64
2021/05/01 09:26:37;;;;;;;7.70;7.03;;;;;;;;;;4953522;28;20983;-63
2021/05/01 09:29:04;;;;;;;8.10;7.40;;;;;;;;;;4954115;28;20448;-64
2021/05/01 09:31:38;;;;;;;10.70;7.20;;;;;;;;;;4953894;28;20453;-63
2021/05/01 09:34:05;;;;;;;7.00;6.50;;;;;;;;;;4954141;28;20483;-64
2021/05/01 09:36:32;;;;;;;7.67;7.07;;;;;;;;;;4953557;28;20452;-63
2021/05/01 09:39:09;;;;;;;6.80;6.20;;;;;;;;;;4953716;28;20466;-63
2021/05/01 09:41:37;;;;;;;7.03;6.53;;;;;;;;;;4953667;28;20936;-63
2021/05/01 09:44:06;;;;;;;6.40;5.90;;;;;;;;;;4953707;28;20479;-64
2021/05/01 09:46:42;;;;;;;7.17;6.57;;;;;;;;;;4953661;28;20854;-63
2021/05/01 09:49:09;;;;;;;6.27;5.77;;;;;;;;;;4954023;28;20441;-63
2021/05/01 09:51:48;;;;;;;7.60;7.00;;;;;;;;;;4953823;28;20475;-64
2021/05/01 09:54:16;;;;;;;6.60;6.10;;;;;;;;;;4953959;28;20480;-64
2021/05/01 09:56:44;;;;;;;7.10;6.60;;;;;;;;;;4953404;28;20455;-63
2021/05/01 09:59:11;;;;;;;7.30;6.77;;;;;;;;;;4953474;28;20537;-63
2021/05/01 10:01:38;;;;;;;6.57;6.00;;;;;;;;;;4953955;28;20457;-63
2021/05/01 10:04:11;;;;;;;6.93;6.33;;;;;;;;;;4953584;28;20895;-63
2021/05/01 10:06:39;;;;;;;6.90;6.40;;;;;;;;;;4953445;28;20492;-63
2021/05/01 10:09:06;;;;;;;6.53;6.13;;;;;;;;;;4954058;28;20743;-63
2021/05/01 10:11:33;;;;;;;7.63;7.10;;;;;;;;;;4953013;28;20452;-63
2021/05/01 10:14:00;;;;;;;6.87;6.27;;;;;;;;;;4953487;28;20488;-64
2021/05/01 10:16:26;;;;;;;7.67;7.07;;;;;;;;;;4953363;28;20539;-63
2021/05/01 10:19:04;;;;;;;6.90;6.30;;;;;;;;;;4953696;28;20456;-63
2021/05/01 10:21:31;;;;;;;6.50;6.00;;;;;;;;;;4953488;28;20451;-63
2021/05/01 10:23:58;;;;;;;7.57;6.97;;;;;;;;;;4953403;28;21018;-63
2021/05/01 10:26:24;;;;;;;8.30;7.60;;;;;;;;;;4955166;28;20627;-64
2021/05/01 10:28:55;;;;;;;7.60;7.00;;;;;;;;;;4957258;28;20452;-63
2021/05/01 10:31:23;;;;;;;7.90;7.20;;;;;;;;;;4957422;28;20437;-63
2021/05/01 10:33:51;;;;;;;8.13;7.43;;;;;;;;;;4957433;28;20563;-63
2021/05/01 10:36:21;;;;;;;8.40;7.80;;;;;;;;;;4957228;28;20448;-63
2021/05/01 10:38:57;;;;;;;8.80;8.10;;;;;;;;;;4957456;28;20481;-63
2021/05/01 10:41:24;;;;;;;7.80;7.27;;;;;;;;;;4956952;28;20459;-63
2021/05/01 10:43:53;;;;;;;7.27;6.67;;;;;;;;;;4957358;28;20483;-64
2021/05/01 10:46:23;;;;;;;7.53;6.93;;;;;;;;;;4956715;28;20883;-63
2021/05/01 10:48:51;;;;;;;7.30;6.80;;;;;;;;;;4956576;28;20454;-63
2021/05/01 10:51:18;;;;;;;6.47;5.97;;;;;;;;;;4957292;28;20444;-63
2021/05/01 10:53:48;;;;;;;6.53;6.13;;;;;;;;;;4957094;28;20468;-63
2021/05/01 10:56:14;;;;;;;7.20;6.60;;;;;;;;;;4956430;28;20463;-63
2021/05/01 10:58:42;;;;;;;8.50;7.70;;;;;;;;;;4956802;28;20948;-63
2021/05/01 11:01:11;;;;;;;8.40;7.60;;;;;;;;;;4956857;28;20543;-64
2021/05/01 11:03:48;;;;;;;8.93;8.27;;;;;;;;;;4956837;28;20515;-63
2021/05/01 11:06:22;;;;;;;7.77;7.17;;;;;;;;;;4956568;28;20479;-62
2021/05/01 11:08:54;;;;;;;9.10;8.40;;;;;;;;;;4957044;28;20879;-63
2021/05/01 11:11:25;;;;;;;8.37;7.57;;;;;;;;;;4956832;28;20432;-63
2021/05/01 11:13:52;;;;;;;6.90;6.40;;;;;;;;;;4956587;28;20468;-63
2021/05/01 11:16:23;;;;;;;8.13;7.53;;;;;;;;;;4957232;28;20444;-66
2021/05/01 11:18:50;;;;;;;7.53;6.93;;;;;;;;;;4956691;28;20456;-63
2021/05/01 11:21:17;;;;;;;6.60;6.10;;;;;;;;;;4956452;28;20615;-63
2021/05/01 11:23:44;;;;;;;7.43;6.93;;;;;;;;;;4956693;28;20487;-63
2021/05/01 11:26:11;;;;;;;7.93;7.40;;;;;;;;;;4956371;28;20484;-63
2021/05/01 11:28:38;;;;;;;8.03;7.40;;;;;;;;;;4956216;28;20514;-63
2021/05/01 11:31:05;;;;;;;7.63;7.07;;;;;;;;;;4956221;28;20456;-63
2021/05/01 11:33:34;;;;;;;8.70;7.90;;;;;;;;;;4955744;28;20980;-63
2021/05/01 11:36:01;;;;;;;8.27;7.63;;;;;;;;;;4955798;28;20506;-63
2021/05/01 11:38:31;;;;;;;8.30;7.70;;;;;;;;;;4956193;28;20456;-63
2021/05/01 11:40:57;;;;;;;8.50;7.90;;;;;;;;;;4955640;28;20463;-63
2021/05/01 11:43:26;;;;;;;9.00;8.30;;;;;;;;;;4956074;28;20467;-63
2021/05/01 11:45:58;;;;;;;8.50;7.90;;;;;;;;;;4955734;28;20506;-62
2021/05/01 11:48:28;;;;;;;9.50;8.80;;;;;;;;;;4956057;28;20943;-62
2021/05/01 11:50:56;;;;;;;11.63;10.70;;;;;;;;;;4955580;28;20917;-62
2021/05/01 11:53:25;;;;;;;9.60;8.80;;;;;;;;;;4956170;28;20459;-63
2021/05/01 11:55:55;;;;;;;9.73;8.87;;;;;;;;;;4955932;28;20456;-62
2021/05/01 11:58:30;;;;;;;10.07;9.20;;;;;;;;;;4955945;28;20827;-62
2021/05/01 12:01:12;;;;;;;9.83;9.00;;;;;;;;;;4955693;28;20856;-62
2021/05/01 12:03:39;;;;;;;10.67;9.93;;;;;;;;;;4955705;28;20511;-63
2021/05/01 12:06:07;;;;;;;9.70;9.00;;;;;;;;;;4955455;28;20511;-62
2021/05/01 12:08:35;;;;;;;9.33;8.63;;;;;;;;;;4956086;28;20833;-62
2021/05/01 12:11:04;;;;;;;8.83;8.23;;;;;;;;;;4955259;28;20453;-63
2021/05/01 12:13:34;;;;;;;9.37;8.50;;;;;;;;;;4955393;28;20452;-63
2021/05/01 12:16:01;;;;;;;8.87;8.20;;;;;;;;;;4955396;28;20453;-63
2021/05/01 12:18:40;;;;;;;9.67;8.97;;;;;;;;;;4955246;28;20967;-63
2021/05/01 12:21:08;;;;;;;9.30;8.60;;;;;;;;;;4955110;28;20460;-63
2021/05/01 12:23:41;;;;;;;7.90;7.30;;;;;;;;;;4955350;28;20531;-62
2021/05/01 12:26:08;;;;;;;10.40;9.60;;;;;;;;;;4956398;28;20572;-62
2021/05/01 12:28:35;;;;;;;10.80;10.00;;;;;;;;;;4955526;28;20456;-62
2021/05/01 12:31:03;;;;;;;10.67;9.87;;;;;;;;;;4955078;28;20881;-63
2021/05/01 12:33:47;;;;;;;11.17;10.30;;;;;;;;;;4955508;28;20467;-63
2021/05/01 12:36:15;;;;;;;12.50;11.50;;;;;;;;;;4955602;28;20456;-62
2021/05/01 12:38:43;;;;;;;11.20;10.40;;;;;;;;;;4955029;28;20460;-62
2021/05/01 12:41:16;;;;;;;12.10;11.20;;;;;;;;;;4954875;28;20822;-63
2021/05/01 12:43:45;;;;;;;12.70;11.80;;;;;;;;;;4954867;28;20824;-62
2021/05/01 12:46:16;;;;;;;16.57;14.83;;;;;;;;;;4954828;28;20490;-63
2021/05/01 12:48:47;;;;;;;15.67;14.57;;;;;;;;;;4954522;28;20835;-62
2021/05/01 12:51:16;;;;;;;15.77;14.60;;;;;;;;;;4954580;28;20475;-62
2021/05/01 12:53:43;;;;;;;17.03;15.73;;;;;;;;;;4954722;28;20559;-62
2021/05/01 12:56:20;;;;;;;17.40;16.00;;;;;;;;;;4954223;28;20833;-62
2021/05/01 12:58:47;;;;;;;17.60;16.20;;;;;;;;;;4954529;28;20935;-62
2021/05/01 13:01:23;;;;;;;16.90;15.50;;;;;;;;;;4954453;28;20967;-62
2021/05/01 13:04:09;;;;;;;20.27;18.57;;;;;;;;;;4954295;28;20490;-63
2021/05/01 13:06:37;;;;;;;17.67;16.37;;;;;;;;;;4976077;23;20504;-64
2021/05/01 13:09:04;;;;;;;18.57;17.07;;;;;;;;;;4962901;28;20498;-64
2021/05/01 13:11:30;;;;;;;19.13;17.67;;;;;;;;;;4966428;28;20451;-65
2021/05/01 13:14:12;;;;;;;17.27;16.07;;;;;;;;;;4973441;28;20455;-64
2021/05/01 13:16:53;;;;;;;14.40;13.40;;;;;;;;;;4957000;28;20480;-64
2021/05/01 13:19:20;;;;;;;15.50;14.30;;;;;;;;;;4954023;29;20464;-63
2021/05/01 13:21:50;;;;;;;14.47;13.37;;;;;;;;;;4954064;28;20948;-64
2021/05/01 13:24:17;;;;;;;15.03;13.93;;;;;;;;;;4954352;28;20495;-64
2021/05/01 13:26:44;;;;;;;12.67;11.83;;;;;;;;;;4953617;28;20491;-64
2021/05/01 13:29:10;;;;;;;13.53;12.53;;;;;;;;;;4954210;28;20455;-65
2021/05/01 13:31:37;;;;;;;13.00;12.00;;;;;;;;;;4954109;28;20457;-66
2021/05/01 13:34:04;;;;;;;13.13;12.13;;;;;;;;;;4954066;28;20971;-64
2021/05/01 13:36:31;;;;;;;14.20;13.10;;;;;;;;;;4953688;28;20574;-65
2021/05/01 13:38:58;;;;;;;14.90;13.70;;;;;;;;;;4954054;28;20820;-64
2021/05/01 13:41:25;;;;;;;16.13;15.03;;;;;;;;;;4954043;28;20837;-64
2021/05/01 13:43:52;;;;;;;16.17;14.97;;;;;;;;;;4953916;28;20463;-63
2021/05/01 13:46:20;;;;;;;16.93;15.53;;;;;;;;;;4953231;28;20499;-64
2021/05/01 13:48:51;;;;;;;17.20;15.90;;;;;;;;;;4953824;28;20579;-64
2021/05/01 13:51:28;;;;;;;16.83;15.60;;;;;;;;;;4953616;28;20956;-63
2021/05/01 13:54:07;;;;;;;16.70;15.50;;;;;;;;;;4953828;28;20459;-63
2021/05/01 13:56:33;;;;;;;15.60;14.50;;;;;;;;;;4953369;28;20475;-63
2021/05/01 13:59:00;;;;;;;15.10;14.00;;;;;;;;;;4953642;28;20535;-64
2021/05/01 14:01:26;;;;;;;15.30;14.20;;;;;;;;;;4952455;28;20456;-64
2021/05/01 14:03:53;;;;;;;16.77;15.57;;;;;;;;;;4954153;28;20448;-64
2021/05/01 14:06:20;;;;;;;15.47;14.30;;;;;;;;;;4953085;28;20495;-63
2021/05/01 14:08:46;;;;;;;15.07;13.97;;;;;;;;;;4953676;28;20472;-64
2021/05/01 14:11:14;;;;;;;15.90;14.70;;;;;;;;;;4953615;28;20448;-64
2021/05/01 14:13:40;;;;;;;14.97;13.87;;;;;;;;;;4953587;28;20459;-64
2021/05/01 14:16:14;;;;;;;16.30;15.10;;;;;;;;;;4953427;28;20503;-64
2021/05/01 14:18:40;;;;;;;15.17;14.00;;;;;;;;;;4953845;28;20459;-64
2021/05/01 14:21:08;;;;;;;15.80;14.70;;;;;;;;;;4953207;28;20824;-64
2021/05/01 14:23:35;;;;;;;16.90;15.70;;;;;;;;;;4953427;28;20457;-63
2021/05/01 14:26:01;;;;;;;17.33;16.03;;;;;;;;;;4953208;28;20472;-63
2021/05/01 14:28:30;;;;;;;17.40;16.00;;;;;;;;;;4953283;28;20499;-64
2021/05/01 14:33:42;;;;;;;17.73;16.43;;;;;;;;;;4953198;28;20535;-64